sensor_id;sensor_type;location;lat;lon;timestamp;P1;durP1;ratioP1;P2;durP2;ratioP2
68951;SDS011;56000;51.146;17.112;2022-12-11T00:00:49;50.90;;;21.50;;
68951;SDS011;56000;51.146;17.112;2022-12-11T00:03:42;64.40;;;28.20;;
68951;SDS011;56000;51.146;17.112;2022-12-11T00:06:17;68.90;;;30.00;;
68951;SDS011;56000;51.146;17.112;2022-12-11T00:08:53;70.10;;;29.80;;
68951;SDS011;56000;51.146;17.112;2022-12-11T00:11:26;57.60;;;25.00;;
68951;SDS011;56000;51.146;17.112;2022-12-11T00:13:59;64.00;;;26.50;;
68951;SDS011;56000;51.146;17.112;2022-12-11T00:16:32;52.20;;;22.30;;
68951;SDS011;56000;51.146;17.112;2022-12-11T00:19:05;63.40;;;26.30;;
68951;SDS011;56000;51.146;17.112;2022-12-11T00:21:38;61.40;;;26.80;;
68951;SDS011;56000;51.146;17.112;2022-12-11T00:24:11;50.10;;;22.20;;
68951;SDS011;56000;51.146;17.112;2022-12-11T00:26:44;63.00;;;26.00;;
68951;SDS011;56000;51.146;17.112;2022-12-11T00:29:17;73.20;;;30.30;;
68951;SDS011;56000;51.146;17.112;2022-12-11T00:31:50;55.60;;;22.00;;
68951;SDS011;56000;51.146;17.112;2022-12-11T00:34:23;64.50;;;27.40;;
68951;SDS011;56000;51.146;17.112;2022-12-11T00:36:56;64.60;;;27.50;;
68951;SDS011;56000;51.146;17.112;2022-12-11T00:39:29;40.70;;;20.40;;
68951;SDS011;56000;51.146;17.112;2022-12-11T00:42:02;49.00;;;21.10;;
68951;SDS011;56000;51.146;17.112;2022-12-11T00:44:35;74.30;;;32.10;;
68951;SDS011;56000;51.146;17.112;2022-12-11T00:47:09;68.70;;;31.10;;
68951;SDS011;56000;51.146;17.112;2022-12-11T00:49:42;72.00;;;29.20;;
68951;SDS011;56000;51.146;17.112;2022-12-11T00:52:18;63.40;;;26.60;;
68951;SDS011;56000;51.146;17.112;2022-12-11T00:54:51;53.10;;;24.10;;
68951;SDS011;56000;51.146;17.112;2022-12-11T00:57:24;63.00;;;27.20;;
68951;SDS011;56000;51.146;17.112;2022-12-11T00:59:57;62.00;;;25.80;;
68951;SDS011;56000;51.146;17.112;2022-12-11T01:02:30;59.60;;;25.20;;
68951;SDS011;56000;51.146;17.112;2022-12-11T01:05:03;62.10;;;26.10;;
68951;SDS011;56000;51.146;17.112;2022-12-11T01:07:38;46.80;;;21.10;;
68951;SDS011;56000;51.146;17.112;2022-12-11T01:10:12;67.50;;;28.20;;
68951;SDS011;56000;51.146;17.112;2022-12-11T01:12:55;47.20;;;20.30;;
68951;SDS011;56000;51.146;17.112;2022-12-11T01:15:31;67.80;;;28.40;;
68951;SDS011;56000;51.146;17.112;2022-12-11T01:18:11;68.10;;;29.70;;
68951;SDS011;56000;51.146;17.112;2022-12-11T01:20:44;67.40;;;28.50;;
68951;SDS011;56000;51.146;17.112;2022-12-11T01:23:17;58.00;;;25.20;;
68951;SDS011;56000;51.146;17.112;2022-12-11T01:25:50;49.30;;;20.20;;
68951;SDS011;56000;51.146;17.112;2022-12-11T01:28:23;51.00;;;21.20;;
68951;SDS011;56000;51.146;17.112;2022-12-11T01:30:56;50.40;;;22.30;;
68951;SDS011;56000;51.146;17.112;2022-12-11T01:33:29;43.90;;;18.90;;
68951;SDS011;56000;51.146;17.112;2022-12-11T01:36:02;51.60;;;25.60;;
68951;SDS011;56000;51.146;17.112;2022-12-11T01:38:39;55.50;;;23.90;;
68951;SDS011;56000;51.146;17.112;2022-12-11T01:41:12;58.10;;;25.10;;
68951;SDS011;56000;51.146;17.112;2022-12-11T01:43:59;49.40;;;21.30;;
68951;SDS011;56000;51.146;17.112;2022-12-11T01:46:35;49.90;;;24.10;;
68951;SDS011;56000;51.146;17.112;2022-12-11T01:49:10;58.40;;;25.40;;
68951;SDS011;56000;51.146;17.112;2022-12-11T01:51:47;59.80;;;26.80;;
68951;SDS011;56000;51.146;17.112;2022-12-11T01:54:23;61.40;;;26.50;;
68951;SDS011;56000;51.146;17.112;2022-12-11T01:56:59;64.70;;;30.00;;
68951;SDS011;56000;51.146;17.112;2022-12-11T01:59:37;66.80;;;27.70;;
68951;SDS011;56000;51.146;17.112;2022-12-11T02:02:16;61.10;;;26.70;;
68951;SDS011;56000;51.146;17.112;2022-12-11T02:04:51;69.90;;;29.30;;
68951;SDS011;56000;51.146;17.112;2022-12-11T02:07:24;44.60;;;20.60;;
68951;SDS011;56000;51.146;17.112;2022-12-11T02:09:57;63.10;;;26.60;;
68951;SDS011;56000;51.146;17.112;2022-12-11T02:12:33;55.10;;;21.90;;
68951;SDS011;56000;51.146;17.112;2022-12-11T02:15:18;65.70;;;29.00;;
68951;SDS011;56000;51.146;17.112;2022-12-11T02:17:58;66.20;;;29.20;;
68951;SDS011;56000;51.146;17.112;2022-12-11T02:20:42;64.90;;;28.80;;
68951;SDS011;56000;51.146;17.112;2022-12-11T02:23:50;65.20;;;26.90;;
68951;SDS011;56000;51.146;17.112;2022-12-11T02:26:40;57.40;;;23.20;;
68951;SDS011;56000;51.146;17.112;2022-12-11T02:29:27;49.30;;;24.10;;
68951;SDS011;56000;51.146;17.112;2022-12-11T02:32:07;57.80;;;26.30;;
68951;SDS011;56000;51.146;17.112;2022-12-11T02:34:45;42.00;;;17.10;;
68951;SDS011;56000;51.146;17.112;2022-12-11T02:37:24;50.10;;;24.60;;
68951;SDS011;56000;51.146;17.112;2022-12-11T02:40:01;63.70;;;27.40;;
68951;SDS011;56000;51.146;17.112;2022-12-11T02:42:37;67.20;;;28.20;;
68951;SDS011;56000;51.146;17.112;2022-12-11T02:45:13;61.50;;;28.50;;
68951;SDS011;56000;51.146;17.112;2022-12-11T02:47:49;60.60;;;27.70;;
68951;SDS011;56000;51.146;17.112;2022-12-11T02:50:22;41.50;;;20.10;;
68951;SDS011;56000;51.146;17.112;2022-12-11T02:52:57;47.80;;;20.30;;
68951;SDS011;56000;51.146;17.112;2022-12-11T02:55:33;45.70;;;17.60;;
68951;SDS011;56000;51.146;17.112;2022-12-11T02:58:11;49.20;;;22.20;;
68951;SDS011;56000;51.146;17.112;2022-12-11T03:00:46;51.20;;;24.60;;
68951;SDS011;56000;51.146;17.112;2022-12-11T03:03:20;60.70;;;25.70;;
68951;SDS011;56000;51.146;17.112;2022-12-11T03:05:53;51.90;;;23.00;;
68951;SDS011;56000;51.146;17.112;2022-12-11T03:08:26;56.00;;;24.80;;
68951;SDS011;56000;51.146;17.112;2022-12-11T03:10:59;41.20;;;19.40;;
68951;SDS011;56000;51.146;17.112;2022-12-11T03:13:32;58.60;;;22.90;;
68951;SDS011;56000;51.146;17.112;2022-12-11T03:16:09;53.50;;;24.70;;
68951;SDS011;56000;51.146;17.112;2022-12-11T03:18:51;54.40;;;23.50;;
68951;SDS011;56000;51.146;17.112;2022-12-11T03:21:31;57.50;;;26.50;;
68951;SDS011;56000;51.146;17.112;2022-12-11T03:24:11;38.00;;;16.60;;
68951;SDS011;56000;51.146;17.112;2022-12-11T03:26:53;41.60;;;18.10;;
68951;SDS011;56000;51.146;17.112;2022-12-11T03:29:38;55.60;;;25.00;;
68951;SDS011;56000;51.146;17.112;2022-12-11T03:32:18;50.90;;;20.70;;
68951;SDS011;56000;51.146;17.112;2022-12-11T03:34:54;53.70;;;24.60;;
68951;SDS011;56000;51.146;17.112;2022-12-11T03:37:33;52.60;;;23.40;;
68951;SDS011;56000;51.146;17.112;2022-12-11T03:40:12;56.30;;;25.40;;
68951;SDS011;56000;51.146;17.112;2022-12-11T03:42:49;57.60;;;24.80;;
68951;SDS011;56000;51.146;17.112;2022-12-11T03:45:24;37.90;;;16.60;;
68951;SDS011;56000;51.146;17.112;2022-12-11T03:47:59;54.30;;;22.60;;
68951;SDS011;56000;51.146;17.112;2022-12-11T03:50:33;53.40;;;24.50;;
68951;SDS011;56000;51.146;17.112;2022-12-11T03:53:07;51.60;;;20.30;;
68951;SDS011;56000;51.146;17.112;2022-12-11T03:55:40;40.60;;;19.10;;
68951;SDS011;56000;51.146;17.112;2022-12-11T03:58:13;34.80;;;14.30;;
68951;SDS011;56000;51.146;17.112;2022-12-11T04:00:47;37.70;;;18.90;;
68951;SDS011;56000;51.146;17.112;2022-12-11T04:03:20;55.50;;;24.20;;
68951;SDS011;56000;51.146;17.112;2022-12-11T04:05:54;58.30;;;24.70;;
68951;SDS011;56000;51.146;17.112;2022-12-11T04:08:27;45.70;;;21.60;;
68951;SDS011;56000;51.146;17.112;2022-12-11T04:11:01;46.30;;;20.50;;
68951;SDS011;56000;51.146;17.112;2022-12-11T04:13:51;53.80;;;24.20;;
68951;SDS011;56000;51.146;17.112;2022-12-11T04:16:38;40.00;;;19.00;;
68951;SDS011;56000;51.146;17.112;2022-12-11T04:19:11;54.50;;;24.80;;
68951;SDS011;56000;51.146;17.112;2022-12-11T04:22:02;33.70;;;16.40;;
68951;SDS011;56000;51.146;17.112;2022-12-11T04:24:49;44.70;;;19.10;;
68951;SDS011;56000;51.146;17.112;2022-12-11T04:27:22;54.50;;;23.80;;
68951;SDS011;56000;51.146;17.112;2022-12-11T04:30:14;43.20;;;18.30;;
68951;SDS011;56000;51.146;17.112;2022-12-11T04:32:50;41.50;;;18.40;;
68951;SDS011;56000;51.146;17.112;2022-12-11T04:35:24;56.50;;;25.20;;
68951;SDS011;56000;51.146;17.112;2022-12-11T04:37:57;41.80;;;20.00;;
68951;SDS011;56000;51.146;17.112;2022-12-11T04:40:31;40.80;;;20.00;;
68951;SDS011;56000;51.146;17.112;2022-12-11T04:43:03;55.20;;;24.70;;
68951;SDS011;56000;51.146;17.112;2022-12-11T04:45:36;50.40;;;23.90;;
68951;SDS011;56000;51.146;17.112;2022-12-11T04:48:09;48.00;;;22.90;;
68951;SDS011;56000;51.146;17.112;2022-12-11T04:50:42;51.20;;;25.80;;
68951;SDS011;56000;51.146;17.112;2022-12-11T04:53:16;56.20;;;25.90;;
68951;SDS011;56000;51.146;17.112;2022-12-11T04:55:49;56.10;;;26.40;;
68951;SDS011;56000;51.146;17.112;2022-12-11T04:58:22;53.70;;;25.50;;
68951;SDS011;56000;51.146;17.112;2022-12-11T05:00:55;48.80;;;21.70;;
68951;SDS011;56000;51.146;17.112;2022-12-11T05:03:28;52.50;;;25.70;;
68951;SDS011;56000;51.146;17.112;2022-12-11T05:06:01;56.80;;;27.20;;
68951;SDS011;56000;51.146;17.112;2022-12-11T05:08:35;50.10;;;26.30;;
68951;SDS011;56000;51.146;17.112;2022-12-11T05:11:11;43.80;;;22.10;;
68951;SDS011;56000;51.146;17.112;2022-12-11T05:13:45;35.90;;;18.60;;
68951;SDS011;56000;51.146;17.112;2022-12-11T05:16:18;50.80;;;24.50;;
68951;SDS011;56000;51.146;17.112;2022-12-11T05:18:51;52.80;;;25.20;;
68951;SDS011;56000;51.146;17.112;2022-12-11T05:21:24;40.90;;;20.20;;
68951;SDS011;56000;51.146;17.112;2022-12-11T05:24:04;45.90;;;23.40;;
68951;SDS011;56000;51.146;17.112;2022-12-11T05:26:38;44.80;;;22.20;;
68951;SDS011;56000;51.146;17.112;2022-12-11T05:29:11;48.60;;;25.10;;
68951;SDS011;56000;51.146;17.112;2022-12-11T05:31:44;49.10;;;23.30;;
68951;SDS011;56000;51.146;17.112;2022-12-11T05:34:17;45.50;;;23.40;;
68951;SDS011;56000;51.146;17.112;2022-12-11T05:36:49;39.50;;;21.80;;
68951;SDS011;56000;51.146;17.112;2022-12-11T05:39:22;42.50;;;21.00;;
68951;SDS011;56000;51.146;17.112;2022-12-11T05:41:55;42.20;;;23.10;;
68951;SDS011;56000;51.146;17.112;2022-12-11T05:44:28;38.10;;;20.30;;
68951;SDS011;56000;51.146;17.112;2022-12-11T05:47:01;30.90;;;16.90;;
68951;SDS011;56000;51.146;17.112;2022-12-11T05:49:34;39.80;;;20.40;;
68951;SDS011;56000;51.146;17.112;2022-12-11T05:52:07;39.10;;;19.10;;
68951;SDS011;56000;51.146;17.112;2022-12-11T05:54:40;32.00;;;17.20;;
68951;SDS011;56000;51.146;17.112;2022-12-11T05:57:13;33.80;;;17.60;;
68951;SDS011;56000;51.146;17.112;2022-12-11T05:59:46;38.50;;;19.00;;
68951;SDS011;56000;51.146;17.112;2022-12-11T06:02:19;32.70;;;15.90;;
68951;SDS011;56000;51.146;17.112;2022-12-11T06:04:52;42.20;;;21.40;;
68951;SDS011;56000;51.146;17.112;2022-12-11T06:07:25;31.90;;;14.10;;
68951;SDS011;56000;51.146;17.112;2022-12-11T06:09:58;30.00;;;15.50;;
68951;SDS011;56000;51.146;17.112;2022-12-11T06:12:31;40.60;;;21.00;;
68951;SDS011;56000;51.146;17.112;2022-12-11T06:15:04;32.00;;;16.30;;
68951;SDS011;56000;51.146;17.112;2022-12-11T06:17:38;31.70;;;17.10;;
68951;SDS011;56000;51.146;17.112;2022-12-11T06:20:12;38.30;;;21.30;;
68951;SDS011;56000;51.146;17.112;2022-12-11T06:22:45;38.10;;;19.40;;
68951;SDS011;56000;51.146;17.112;2022-12-11T06:25:18;38.00;;;20.00;;
68951;SDS011;56000;51.146;17.112;2022-12-11T06:27:51;35.10;;;17.30;;
68951;SDS011;56000;51.146;17.112;2022-12-11T06:30:24;33.00;;;15.80;;
68951;SDS011;56000;51.146;17.112;2022-12-11T06:33:08;37.50;;;15.30;;
68951;SDS011;56000;51.146;17.112;2022-12-11T06:35:41;33.90;;;17.10;;
68951;SDS011;56000;51.146;17.112;2022-12-11T06:38:13;34.10;;;16.10;;
68951;SDS011;56000;51.146;17.112;2022-12-11T06:40:46;33.30;;;16.90;;
68951;SDS011;56000;51.146;17.112;2022-12-11T06:43:26;35.30;;;18.20;;
68951;SDS011;56000;51.146;17.112;2022-12-11T06:46:01;26.00;;;13.50;;
68951;SDS011;56000;51.146;17.112;2022-12-11T06:48:35;29.80;;;14.30;;
68951;SDS011;56000;51.146;17.112;2022-12-11T06:51:10;31.90;;;15.20;;
68951;SDS011;56000;51.146;17.112;2022-12-11T06:53:44;33.20;;;16.20;;
68951;SDS011;56000;51.146;17.112;2022-12-11T06:56:21;33.90;;;17.30;;
68951;SDS011;56000;51.146;17.112;2022-12-11T06:58:54;30.70;;;15.60;;
68951;SDS011;56000;51.146;17.112;2022-12-11T07:01:34;33.00;;;15.30;;
68951;SDS011;56000;51.146;17.112;2022-12-11T07:04:07;29.80;;;16.50;;
68951;SDS011;56000;51.146;17.112;2022-12-11T07:06:40;28.60;;;14.70;;
68951;SDS011;56000;51.146;17.112;2022-12-11T07:09:13;30.30;;;16.10;;
68951;SDS011;56000;51.146;17.112;2022-12-11T07:11:46;36.70;;;17.30;;
68951;SDS011;56000;51.146;17.112;2022-12-11T07:14:21;30.20;;;13.50;;
68951;SDS011;56000;51.146;17.112;2022-12-11T07:16:54;35.50;;;15.00;;
68951;SDS011;56000;51.146;17.112;2022-12-11T07:19:27;36.70;;;19.10;;
68951;SDS011;56000;51.146;17.112;2022-12-11T07:22:00;32.50;;;16.90;;
68951;SDS011;56000;51.146;17.112;2022-12-11T07:24:33;32.50;;;17.30;;
68951;SDS011;56000;51.146;17.112;2022-12-11T07:27:06;33.30;;;17.00;;
68951;SDS011;56000;51.146;17.112;2022-12-11T07:29:39;34.00;;;17.60;;
68951;SDS011;56000;51.146;17.112;2022-12-11T07:32:12;36.00;;;18.90;;
68951;SDS011;56000;51.146;17.112;2022-12-11T07:34:45;37.10;;;18.20;;
68951;SDS011;56000;51.146;17.112;2022-12-11T07:37:20;37.50;;;18.90;;
68951;SDS011;56000;51.146;17.112;2022-12-11T07:39:53;34.50;;;18.40;;
68951;SDS011;56000;51.146;17.112;2022-12-11T07:42:26;31.60;;;14.40;;
68951;SDS011;56000;51.146;17.112;2022-12-11T07:44:59;30.60;;;17.00;;
68951;SDS011;56000;51.146;17.112;2022-12-11T07:47:33;23.20;;;12.50;;
68951;SDS011;56000;51.146;17.112;2022-12-11T07:50:07;24.50;;;13.60;;
68951;SDS011;56000;51.146;17.112;2022-12-11T07:52:40;29.60;;;14.90;;
68951;SDS011;56000;51.146;17.112;2022-12-11T07:55:13;34.20;;;17.50;;
68951;SDS011;56000;51.146;17.112;2022-12-11T07:57:46;29.80;;;14.00;;
68951;SDS011;56000;51.146;17.112;2022-12-11T08:00:19;33.60;;;17.40;;
68951;SDS011;56000;51.146;17.112;2022-12-11T08:02:52;32.70;;;15.40;;
68951;SDS011;56000;51.146;17.112;2022-12-11T08:05:25;28.20;;;15.60;;
68951;SDS011;56000;51.146;17.112;2022-12-11T08:07:58;40.40;;;20.10;;
68951;SDS011;56000;51.146;17.112;2022-12-11T08:10:31;30.80;;;16.10;;
68951;SDS011;56000;51.146;17.112;2022-12-11T08:13:04;33.60;;;18.20;;
68951;SDS011;56000;51.146;17.112;2022-12-11T08:15:37;34.70;;;18.40;;
68951;SDS011;56000;51.146;17.112;2022-12-11T08:18:10;33.90;;;17.60;;
68951;SDS011;56000;51.146;17.112;2022-12-11T08:20:43;28.60;;;15.70;;
68951;SDS011;56000;51.146;17.112;2022-12-11T08:23:16;30.80;;;16.90;;
68951;SDS011;56000;51.146;17.112;2022-12-11T08:25:49;29.90;;;14.60;;
68951;SDS011;56000;51.146;17.112;2022-12-11T08:28:22;31.40;;;14.30;;
68951;SDS011;56000;51.146;17.112;2022-12-11T08:30:56;26.20;;;14.00;;
68951;SDS011;56000;51.146;17.112;2022-12-11T08:33:29;27.40;;;13.70;;
68951;SDS011;56000;51.146;17.112;2022-12-11T08:36:04;34.20;;;15.70;;
68951;SDS011;56000;51.146;17.112;2022-12-11T08:38:39;25.90;;;13.80;;
68951;SDS011;56000;51.146;17.112;2022-12-11T08:41:14;30.70;;;14.80;;
68951;SDS011;56000;51.146;17.112;2022-12-11T08:43:49;20.30;;;11.60;;
68951;SDS011;56000;51.146;17.112;2022-12-11T08:46:25;23.60;;;13.30;;
68951;SDS011;56000;51.146;17.112;2022-12-11T08:48:59;19.60;;;9.90;;
68951;SDS011;56000;51.146;17.112;2022-12-11T08:51:32;25.90;;;13.40;;
68951;SDS011;56000;51.146;17.112;2022-12-11T08:54:05;23.80;;;11.80;;
68951;SDS011;56000;51.146;17.112;2022-12-11T08:56:39;31.40;;;16.10;;
68951;SDS011;56000;51.146;17.112;2022-12-11T08:59:12;26.40;;;13.90;;
68951;SDS011;56000;51.146;17.112;2022-12-11T09:01:47;24.70;;;13.00;;
68951;SDS011;56000;51.146;17.112;2022-12-11T09:04:20;19.90;;;9.20;;
68951;SDS011;56000;51.146;17.112;2022-12-11T09:06:53;25.00;;;12.80;;
68951;SDS011;56000;51.146;17.112;2022-12-11T09:09:26;29.20;;;15.20;;
68951;SDS011;56000;51.146;17.112;2022-12-11T09:11:59;22.60;;;11.60;;
68951;SDS011;56000;51.146;17.112;2022-12-11T09:14:33;25.40;;;13.00;;
68951;SDS011;56000;51.146;17.112;2022-12-11T09:17:06;22.40;;;12.20;;
68951;SDS011;56000;51.146;17.112;2022-12-11T09:19:39;28.10;;;12.00;;
68951;SDS011;56000;51.146;17.112;2022-12-11T09:22:12;24.40;;;12.80;;
68951;SDS011;56000;51.146;17.112;2022-12-11T09:24:45;25.10;;;13.20;;
68951;SDS011;56000;51.146;17.112;2022-12-11T09:27:18;19.80;;;10.00;;
68951;SDS011;56000;51.146;17.112;2022-12-11T09:29:52;27.40;;;13.90;;
68951;SDS011;56000;51.146;17.112;2022-12-11T09:32:25;29.50;;;15.10;;
68951;SDS011;56000;51.146;17.112;2022-12-11T09:34:59;21.90;;;11.60;;
68951;SDS011;56000;51.146;17.112;2022-12-11T09:37:33;28.00;;;14.70;;
68951;SDS011;56000;51.146;17.112;2022-12-11T09:40:08;30.40;;;14.70;;
68951;SDS011;56000;51.146;17.112;2022-12-11T09:42:48;31.00;;;14.80;;
68951;SDS011;56000;51.146;17.112;2022-12-11T09:45:24;27.40;;;13.50;;
68951;SDS011;56000;51.146;17.112;2022-12-11T09:47:57;22.70;;;12.90;;
68951;SDS011;56000;51.146;17.112;2022-12-11T09:50:32;29.20;;;14.70;;
68951;SDS011;56000;51.146;17.112;2022-12-11T09:53:10;27.80;;;15.90;;
68951;SDS011;56000;51.146;17.112;2022-12-11T09:55:50;28.20;;;14.90;;
68951;SDS011;56000;51.146;17.112;2022-12-11T09:58:33;32.10;;;15.60;;
68951;SDS011;56000;51.146;17.112;2022-12-11T10:01:20;29.00;;;15.20;;
68951;SDS011;56000;51.146;17.112;2022-12-11T10:04:08;33.00;;;17.90;;
68951;SDS011;56000;51.146;17.112;2022-12-11T10:06:49;28.70;;;15.70;;
68951;SDS011;56000;51.146;17.112;2022-12-11T10:09:31;31.20;;;16.90;;
68951;SDS011;56000;51.146;17.112;2022-12-11T10:12:15;27.70;;;13.70;;
68951;SDS011;56000;51.146;17.112;2022-12-11T10:15:07;32.20;;;14.30;;
68951;SDS011;56000;51.146;17.112;2022-12-11T10:17:48;26.30;;;13.60;;
68951;SDS011;56000;51.146;17.112;2022-12-11T10:20:32;26.00;;;13.60;;
68951;SDS011;56000;51.146;17.112;2022-12-11T10:23:17;22.50;;;12.20;;
68951;SDS011;56000;51.146;17.112;2022-12-11T10:25:55;25.50;;;14.40;;
68951;SDS011;56000;51.146;17.112;2022-12-11T10:28:33;25.40;;;14.50;;
68951;SDS011;56000;51.146;17.112;2022-12-11T10:31:12;22.60;;;12.10;;
68951;SDS011;56000;51.146;17.112;2022-12-11T10:33:57;26.10;;;13.70;;
68951;SDS011;56000;51.146;17.112;2022-12-11T10:36:33;29.20;;;14.80;;
68951;SDS011;56000;51.146;17.112;2022-12-11T10:39:13;26.80;;;14.00;;
68951;SDS011;56000;51.146;17.112;2022-12-11T10:41:48;25.30;;;13.40;;
68951;SDS011;56000;51.146;17.112;2022-12-11T10:44:23;19.70;;;10.70;;
68951;SDS011;56000;51.146;17.112;2022-12-11T10:47:05;23.20;;;12.30;;
68951;SDS011;56000;51.146;17.112;2022-12-11T10:49:53;18.60;;;10.10;;
68951;SDS011;56000;51.146;17.112;2022-12-11T10:52:28;19.10;;;10.20;;
68951;SDS011;56000;51.146;17.112;2022-12-11T10:55:16;19.20;;;11.00;;
68951;SDS011;56000;51.146;17.112;2022-12-11T10:57:58;20.80;;;11.20;;
68951;SDS011;56000;51.146;17.112;2022-12-11T11:00:36;15.90;;;9.50;;
68951;SDS011;56000;51.146;17.112;2022-12-11T11:03:21;17.50;;;9.80;;
68951;SDS011;56000;51.146;17.112;2022-12-11T11:06:05;16.20;;;9.90;;
68951;SDS011;56000;51.146;17.112;2022-12-11T11:08:46;18.60;;;10.40;;
68951;SDS011;56000;51.146;17.112;2022-12-11T11:11:27;10.40;;;6.70;;
68951;SDS011;56000;51.146;17.112;2022-12-11T11:14:11;18.80;;;11.20;;
68951;SDS011;56000;51.146;17.112;2022-12-11T11:16:47;18.00;;;10.70;;
68951;SDS011;56000;51.146;17.112;2022-12-11T11:19:25;25.00;;;12.30;;
68951;SDS011;56000;51.146;17.112;2022-12-11T11:22:03;20.70;;;11.70;;
68951;SDS011;56000;51.146;17.112;2022-12-11T11:24:42;24.20;;;11.90;;
68951;SDS011;56000;51.146;17.112;2022-12-11T11:27:22;19.80;;;11.40;;
68951;SDS011;56000;51.146;17.112;2022-12-11T11:30:03;21.50;;;11.60;;
68951;SDS011;56000;51.146;17.112;2022-12-11T11:32:47;22.20;;;11.60;;
68951;SDS011;56000;51.146;17.112;2022-12-11T11:35:25;22.10;;;12.10;;
68951;SDS011;56000;51.146;17.112;2022-12-11T11:38:08;19.80;;;12.20;;
68951;SDS011;56000;51.146;17.112;2022-12-11T11:40:50;19.80;;;11.40;;
68951;SDS011;56000;51.146;17.112;2022-12-11T11:43:39;22.90;;;11.90;;
68951;SDS011;56000;51.146;17.112;2022-12-11T11:46:19;18.20;;;11.10;;
68951;SDS011;56000;51.146;17.112;2022-12-11T11:48:58;22.30;;;13.10;;
68951;SDS011;56000;51.146;17.112;2022-12-11T11:51:40;24.40;;;12.70;;
68951;SDS011;56000;51.146;17.112;2022-12-11T11:54:26;21.50;;;11.80;;
68951;SDS011;56000;51.146;17.112;2022-12-11T11:57:03;25.90;;;13.40;;
68951;SDS011;56000;51.146;17.112;2022-12-11T11:59:46;24.20;;;12.30;;
68951;SDS011;56000;51.146;17.112;2022-12-11T12:02:24;24.50;;;13.20;;
68951;SDS011;56000;51.146;17.112;2022-12-11T12:04:57;25.20;;;13.20;;
68951;SDS011;56000;51.146;17.112;2022-12-11T12:07:34;22.80;;;11.50;;
68951;SDS011;56000;51.146;17.112;2022-12-11T12:10:15;21.20;;;12.30;;
68951;SDS011;56000;51.146;17.112;2022-12-11T12:12:57;22.80;;;11.70;;
68951;SDS011;56000;51.146;17.112;2022-12-11T12:15:57;26.00;;;11.90;;
68951;SDS011;56000;51.146;17.112;2022-12-11T12:18:36;16.30;;;9.20;;
68951;SDS011;56000;51.146;17.112;2022-12-11T12:21:21;18.00;;;10.60;;
68951;SDS011;56000;51.146;17.112;2022-12-11T12:24:09;23.30;;;11.80;;
68951;SDS011;56000;51.146;17.112;2022-12-11T12:26:54;20.30;;;11.60;;
68951;SDS011;56000;51.146;17.112;2022-12-11T12:29:38;20.70;;;11.90;;
68951;SDS011;56000;51.146;17.112;2022-12-11T12:32:21;19.10;;;10.70;;
68951;SDS011;56000;51.146;17.112;2022-12-11T12:35:05;17.80;;;9.40;;
68951;SDS011;56000;51.146;17.112;2022-12-11T12:37:53;18.30;;;10.60;;
68951;SDS011;56000;51.146;17.112;2022-12-11T12:40:34;15.40;;;9.60;;
68951;SDS011;56000;51.146;17.112;2022-12-11T12:43:35;19.80;;;10.70;;
68951;SDS011;56000;51.146;17.112;2022-12-11T12:46:22;17.30;;;9.80;;
68951;SDS011;56000;51.146;17.112;2022-12-11T12:49:01;19.30;;;11.00;;
68951;SDS011;56000;51.146;17.112;2022-12-11T12:51:35;16.70;;;10.00;;
68951;SDS011;56000;51.146;17.112;2022-12-11T12:54:10;18.00;;;9.60;;
68951;SDS011;56000;51.146;17.112;2022-12-11T12:56:45;16.30;;;10.30;;
68951;SDS011;56000;51.146;17.112;2022-12-11T12:59:23;17.70;;;9.80;;
68951;SDS011;56000;51.146;17.112;2022-12-11T13:01:58;15.30;;;7.90;;
68951;SDS011;56000;51.146;17.112;2022-12-11T13:04:38;16.10;;;8.60;;
68951;SDS011;56000;51.146;17.112;2022-12-11T13:07:30;14.90;;;8.40;;
68951;SDS011;56000;51.146;17.112;2022-12-11T13:10:06;16.10;;;8.90;;
68951;SDS011;56000;51.146;17.112;2022-12-11T13:12:53;16.20;;;8.90;;
68951;SDS011;56000;51.146;17.112;2022-12-11T13:15:32;13.20;;;7.10;;
68951;SDS011;56000;51.146;17.112;2022-12-11T13:18:30;15.30;;;8.00;;
68951;SDS011;56000;51.146;17.112;2022-12-11T13:21:29;15.80;;;9.50;;
68951;SDS011;56000;51.146;17.112;2022-12-11T13:24:23;15.30;;;7.80;;
68951;SDS011;56000;51.146;17.112;2022-12-11T13:27:09;15.40;;;8.90;;
68951;SDS011;56000;51.146;17.112;2022-12-11T13:30:02;14.20;;;8.50;;
68951;SDS011;56000;51.146;17.112;2022-12-11T13:32:56;15.20;;;9.00;;
68951;SDS011;56000;51.146;17.112;2022-12-11T13:35:33;14.30;;;8.80;;
68951;SDS011;56000;51.146;17.112;2022-12-11T13:38:14;19.60;;;10.80;;
68951;SDS011;56000;51.146;17.112;2022-12-11T13:40:51;15.40;;;8.90;;
68951;SDS011;56000;51.146;17.112;2022-12-11T13:43:27;19.80;;;10.70;;
68951;SDS011;56000;51.146;17.112;2022-12-11T13:46:04;18.00;;;9.20;;
68951;SDS011;56000;51.146;17.112;2022-12-11T13:48:44;17.40;;;9.40;;
68951;SDS011;56000;51.146;17.112;2022-12-11T13:51:22;17.50;;;9.20;;
68951;SDS011;56000;51.146;17.112;2022-12-11T13:54:14;18.30;;;8.70;;
68951;SDS011;56000;51.146;17.112;2022-12-11T13:56:57;15.70;;;9.50;;
68951;SDS011;56000;51.146;17.112;2022-12-11T13:59:34;13.60;;;7.70;;
68951;SDS011;56000;51.146;17.112;2022-12-11T14:02:14;20.50;;;9.10;;
68951;SDS011;56000;51.146;17.112;2022-12-11T14:07:27;13.10;;;7.40;;
68951;SDS011;56000;51.146;17.112;2022-12-11T14:10:04;16.70;;;9.10;;
68951;SDS011;56000;51.146;17.112;2022-12-11T14:12:40;16.70;;;9.40;;
68951;SDS011;56000;51.146;17.112;2022-12-11T14:15:16;16.00;;;8.70;;
68951;SDS011;56000;51.146;17.112;2022-12-11T14:17:50;17.20;;;9.00;;
68951;SDS011;56000;51.146;17.112;2022-12-11T14:20:27;15.60;;;9.30;;
68951;SDS011;56000;51.146;17.112;2022-12-11T14:23:07;14.00;;;8.00;;
68951;SDS011;56000;51.146;17.112;2022-12-11T14:25:55;18.40;;;10.00;;
68951;SDS011;56000;51.146;17.112;2022-12-11T14:28:34;16.10;;;9.00;;
68951;SDS011;56000;51.146;17.112;2022-12-11T14:31:09;19.40;;;9.30;;
68951;SDS011;56000;51.146;17.112;2022-12-11T14:33:47;12.60;;;7.60;;
68951;SDS011;56000;51.146;17.112;2022-12-11T14:36:23;17.70;;;8.80;;
68951;SDS011;56000;51.146;17.112;2022-12-11T14:38:58;14.90;;;7.50;;
68951;SDS011;56000;51.146;17.112;2022-12-11T14:41:39;14.40;;;7.90;;
68951;SDS011;56000;51.146;17.112;2022-12-11T14:44:17;13.60;;;7.10;;
68951;SDS011;56000;51.146;17.112;2022-12-11T14:46:54;15.60;;;8.00;;
68951;SDS011;56000;51.146;17.112;2022-12-11T14:49:30;16.20;;;8.00;;
68951;SDS011;56000;51.146;17.112;2022-12-11T14:54:46;15.30;;;7.00;;
68951;SDS011;56000;51.146;17.112;2022-12-11T14:57:24;14.10;;;7.60;;
68951;SDS011;56000;51.146;17.112;2022-12-11T14:59:59;11.10;;;7.30;;
68951;SDS011;56000;51.146;17.112;2022-12-11T15:02:35;18.50;;;8.20;;
68951;SDS011;56000;51.146;17.112;2022-12-11T15:05:17;14.60;;;8.30;;
68951;SDS011;56000;51.146;17.112;2022-12-11T15:07:59;13.90;;;8.30;;
68951;SDS011;56000;51.146;17.112;2022-12-11T15:10:35;19.70;;;10.50;;
68951;SDS011;56000;51.146;17.112;2022-12-11T15:13:11;14.40;;;8.10;;